Date,TemperatureHighF,TemperatureAvgF,TemperatureLowF,DewpointHighF,DewpointAvgF,DewpointLowF,HumidityHigh,HumidityAvg,HumidityLow,PressureMaxIn,PressureMinIn,WindSpeedMaxMPH,WindSpeedAvgMPH,GustSpeedMaxMPH,PrecipitationSumIn
2013-4-1,63,46,32,46,38,17,99,76,46,29.69,29.38,10,3,0,0.06
2013-4-2,44,35,27,20,15,10,69,46,28,29.84,29.68,12,3,0,0.00
2013-4-3,48,36,28,18,15,12,58,43,27,30.08,29.83,9,3,0,0.00
2013-4-4,57,40,28,31,21,14,77,49,23,30.19,29.91,7,3,0,0.00
2013-4-5,66,46,37,32,26,20,80,49,19,29.90,29.51,7,2,0,0.00
2013-4-6,54,40,31,24,13,8,64,36,18,30.14,29.77,9,2,0,0.00
2013-4-7,56,44,32,42,32,17,93,66,45,30.14,29.84,10,3,0,0.00
2013-4-8,73,55,40,45,41,38,99,64,28,29.90,29.79,6,2,0,0.00
2013-4-9,80,63,48,53,46,40,96,59,33,29.86,29.71,11,2,0,0.00
2013-4-10,69,56,48,54,50,40,99,80,56,29.81,29.66,6,2,0,0.38
2013-4-11,50,50,49,50,49,49,99,99,99,29.69,29.64,4,0,0,0.00
2013-4-12,42,39,36,39,36,-37,99,90,3,29.94,29.59,7,4,0,0.70
2013-4-13,57,46,35,40,37,35,99,71,46,29.76,29.60,5,2,0,0.02
2013-4-14,55,46,37,39,32,26,88,60,40,30.06,29.76,6,2,0,0.00
2013-4-15,60,45,34,34,30,26,78,57,35,30.22,30.05,7,2,0,0.00
2013-4-16,64,51,36,52,44,33,93,79,57,30.22,29.93,9,3,0,0.00
2013-4-17,71,58,50,53,39,31,94,53,29,30.14,29.93,6,2,0,0.00
2013-4-18,62,52,40,47,38,30,89,61,33,30.22,29.96,7,3,0,0.00
2013-4-19,70,60,51,62,58,47,99,92,75,29.97,29.49,11,4,0,0.00
2013-4-20,62,52,40,62,39,26,99,66,31,30.10,29.48,10,3,0,0.53
2013-4-21,54,43,32,32,23,18,70,46,29,30.47,30.11,10,2,0,0.00
2013-4-22,59,46,33,34,30,25,89,58,31,30.53,30.36,10,3,0,0.00
2013-4-23,44,41,37,38,35,30,92,78,66,30.37,30.18,6,4,0,0.00
2013-4-24,55,47,44,49,42,38,95,84,74,30.18,29.68,6,4,0,0.00
2013-4-25,64,54,45,51,36,27,99,54,25,30.10,29.68,7,2,0,0.00
2013-4-26,68,56,36,34,31,28,75,42,25,30.20,30.10,7,2,0,0.00
2013-4-27,69,63,50,45,35,31,70,37,26,30.23,30.11,6,2,0,0.00
2013-4-28,69,56,41,44,38,32,97,55,33,30.16,30.05,8,3,0,0.00
2013-4-29,58,58,58,32,32,32,36,36,36,30.05,30.05,3,3,0,0.00
2013-4-30,58,58,58,32,32,32,36,36,36,30.05,30.05,3,3,0,0.00